sensor_id;sensor_type;location;lat;lon;timestamp;P1;durP1;ratioP1;P2;durP2;ratioP2
11313;SDS011;5712;48.858;9.206;2023-12-28T00:02:00;5.27;;;2.57;;
11313;SDS011;5712;48.858;9.206;2023-12-28T00:04:27;3.47;;;2.60;;
11313;SDS011;5712;48.858;9.206;2023-12-28T00:06:54;4.60;;;3.00;;
11313;SDS011;5712;48.858;9.206;2023-12-28T00:09:21;3.20;;;2.10;;
11313;SDS011;5712;48.858;9.206;2023-12-28T00:11:48;4.17;;;2.10;;
11313;SDS011;5712;48.858;9.206;2023-12-28T00:14:14;3.80;;;2.53;;
11313;SDS011;5712;48.858;9.206;2023-12-28T00:16:41;4.57;;;3.43;;
11313;SDS011;5712;48.858;9.206;2023-12-28T00:19:08;3.27;;;2.50;;
11313;SDS011;5712;48.858;9.206;2023-12-28T00:21:35;4.73;;;2.40;;
11313;SDS011;5712;48.858;9.206;2023-12-28T00:24:01;2.00;;;1.80;;
11313;SDS011;5712;48.858;9.206;2023-12-28T00:26:28;2.63;;;1.67;;
11313;SDS011;5712;48.858;9.206;2023-12-28T00:28:54;1.43;;;1.27;;
11313;SDS011;5712;48.858;9.206;2023-12-28T00:31:21;2.60;;;1.40;;
11313;SDS011;5712;48.858;9.206;2023-12-28T00:33:48;1.90;;;1.43;;
11313;SDS011;5712;48.858;9.206;2023-12-28T00:36:16;1.77;;;1.20;;
11313;SDS011;5712;48.858;9.206;2023-12-28T00:38:43;1.20;;;1.10;;
11313;SDS011;5712;48.858;9.206;2023-12-28T00:41:09;1.50;;;1.30;;
11313;SDS011;5712;48.858;9.206;2023-12-28T00:43:35;1.83;;;1.53;;
11313;SDS011;5712;48.858;9.206;2023-12-28T00:46:02;2.50;;;1.67;;
11313;SDS011;5712;48.858;9.206;2023-12-28T00:48:29;2.47;;;1.90;;
11313;SDS011;5712;48.858;9.206;2023-12-28T00:50:55;2.40;;;1.90;;
11313;SDS011;5712;48.858;9.206;2023-12-28T00:53:25;2.23;;;2.03;;
11313;SDS011;5712;48.858;9.206;2023-12-28T00:55:52;2.07;;;1.87;;
11313;SDS011;5712;48.858;9.206;2023-12-28T00:58:18;4.00;;;3.00;;
11313;SDS011;5712;48.858;9.206;2023-12-28T01:00:45;5.37;;;2.90;;
11313;SDS011;5712;48.858;9.206;2023-12-28T01:03:14;3.43;;;2.40;;
11313;SDS011;5712;48.858;9.206;2023-12-28T01:05:40;2.37;;;1.80;;
11313;SDS011;5712;48.858;9.206;2023-12-28T01:08:07;1.80;;;1.60;;
11313;SDS011;5712;48.858;9.206;2023-12-28T01:10:34;2.40;;;1.87;;
11313;SDS011;5712;48.858;9.206;2023-12-28T01:13:01;2.30;;;1.93;;
11313;SDS011;5712;48.858;9.206;2023-12-28T01:15:27;2.47;;;2.10;;
11313;SDS011;5712;48.858;9.206;2023-12-28T01:17:54;2.07;;;1.57;;
11313;SDS011;5712;48.858;9.206;2023-12-28T01:20:20;2.50;;;1.50;;
11313;SDS011;5712;48.858;9.206;2023-12-28T01:22:47;1.53;;;1.30;;
11313;SDS011;5712;48.858;9.206;2023-12-28T01:25:14;1.47;;;1.33;;
11313;SDS011;5712;48.858;9.206;2023-12-28T01:27:42;1.67;;;1.40;;
11313;SDS011;5712;48.858;9.206;2023-12-28T01:30:09;2.03;;;1.27;;
11313;SDS011;5712;48.858;9.206;2023-12-28T01:32:36;1.93;;;1.37;;
11313;SDS011;5712;48.858;9.206;2023-12-28T01:35:02;1.53;;;1.23;;
11313;SDS011;5712;48.858;9.206;2023-12-28T01:37:29;2.17;;;1.53;;
11313;SDS011;5712;48.858;9.206;2023-12-28T01:39:58;2.80;;;1.83;;
11313;SDS011;5712;48.858;9.206;2023-12-28T01:42:25;6.33;;;3.50;;
11313;SDS011;5712;48.858;9.206;2023-12-28T01:44:52;5.33;;;3.77;;
11313;SDS011;5712;48.858;9.206;2023-12-28T01:47:19;4.73;;;3.40;;
11313;SDS011;5712;48.858;9.206;2023-12-28T01:49:45;3.77;;;2.30;;
11313;SDS011;5712;48.858;9.206;2023-12-28T01:52:12;8.57;;;4.60;;
11313;SDS011;5712;48.858;9.206;2023-12-28T01:54:39;16.30;;;7.63;;
11313;SDS011;5712;48.858;9.206;2023-12-28T01:57:06;10.03;;;6.10;;
11313;SDS011;5712;48.858;9.206;2023-12-28T01:59:33;12.03;;;6.53;;
11313;SDS011;5712;48.858;9.206;2023-12-28T02:02:01;6.83;;;3.77;;
11313;SDS011;5712;48.858;9.206;2023-12-28T02:04:28;2.40;;;1.77;;
11313;SDS011;5712;48.858;9.206;2023-12-28T02:06:55;1.70;;;1.33;;
11313;SDS011;5712;48.858;9.206;2023-12-28T02:09:23;2.03;;;1.50;;
11313;SDS011;5712;48.858;9.206;2023-12-28T02:11:50;1.77;;;1.50;;
11313;SDS011;5712;48.858;9.206;2023-12-28T02:14:17;2.10;;;1.70;;
11313;SDS011;5712;48.858;9.206;2023-12-28T02:16:46;2.00;;;1.60;;
11313;SDS011;5712;48.858;9.206;2023-12-28T02:19:20;3.17;;;1.70;;
11313;SDS011;5712;48.858;9.206;2023-12-28T02:21:57;1.97;;;1.60;;
11313;SDS011;5712;48.858;9.206;2023-12-28T02:24:25;2.63;;;1.80;;
11313;SDS011;5712;48.858;9.206;2023-12-28T02:26:53;3.03;;;1.73;;
11313;SDS011;5712;48.858;9.206;2023-12-28T02:29:20;2.87;;;1.87;;
11313;SDS011;5712;48.858;9.206;2023-12-28T02:31:48;2.60;;;1.70;;
11313;SDS011;5712;48.858;9.206;2023-12-28T02:34:21;2.10;;;1.70;;
11313;SDS011;5712;48.858;9.206;2023-12-28T02:36:53;3.30;;;1.93;;
11313;SDS011;5712;48.858;9.206;2023-12-28T02:39:22;3.23;;;1.53;;
11313;SDS011;5712;48.858;9.206;2023-12-28T02:41:51;3.67;;;1.90;;
11313;SDS011;5712;48.858;9.206;2023-12-28T02:44:19;2.50;;;1.80;;
11313;SDS011;5712;48.858;9.206;2023-12-28T02:46:45;4.37;;;1.80;;
11313;SDS011;5712;48.858;9.206;2023-12-28T02:49:12;1.97;;;1.70;;
11313;SDS011;5712;48.858;9.206;2023-12-28T02:51:40;2.00;;;1.60;;
11313;SDS011;5712;48.858;9.206;2023-12-28T02:54:07;1.97;;;1.60;;
11313;SDS011;5712;48.858;9.206;2023-12-28T02:56:34;1.73;;;1.50;;
11313;SDS011;5712;48.858;9.206;2023-12-28T02:59:00;2.10;;;1.90;;
11313;SDS011;5712;48.858;9.206;2023-12-28T03:01:30;1.70;;;1.50;;
11313;SDS011;5712;48.858;9.206;2023-12-28T03:03:57;1.70;;;1.43;;
11313;SDS011;5712;48.858;9.206;2023-12-28T03:06:23;2.37;;;1.70;;
11313;SDS011;5712;48.858;9.206;2023-12-28T03:08:50;2.63;;;1.60;;
11313;SDS011;5712;48.858;9.206;2023-12-28T03:11:16;2.00;;;1.40;;
11313;SDS011;5712;48.858;9.206;2023-12-28T03:13:43;2.27;;;1.50;;
11313;SDS011;5712;48.858;9.206;2023-12-28T03:16:09;1.97;;;1.60;;
11313;SDS011;5712;48.858;9.206;2023-12-28T03:18:37;2.13;;;1.50;;
11313;SDS011;5712;48.858;9.206;2023-12-28T03:21:03;1.90;;;1.47;;
11313;SDS011;5712;48.858;9.206;2023-12-28T03:23:31;2.10;;;1.47;;
11313;SDS011;5712;48.858;9.206;2023-12-28T03:25:57;1.90;;;1.50;;
11313;SDS011;5712;48.858;9.206;2023-12-28T03:28:24;2.00;;;1.40;;
11313;SDS011;5712;48.858;9.206;2023-12-28T03:30:50;2.80;;;1.43;;
11313;SDS011;5712;48.858;9.206;2023-12-28T03:33:17;2.40;;;1.37;;
11313;SDS011;5712;48.858;9.206;2023-12-28T03:35:44;3.00;;;1.60;;
11313;SDS011;5712;48.858;9.206;2023-12-28T03:38:11;1.50;;;1.40;;
11313;SDS011;5712;48.858;9.206;2023-12-28T03:40:37;1.87;;;1.50;;
11313;SDS011;5712;48.858;9.206;2023-12-28T03:43:04;2.30;;;1.53;;
11313;SDS011;5712;48.858;9.206;2023-12-28T03:45:30;2.77;;;1.43;;
11313;SDS011;5712;48.858;9.206;2023-12-28T03:47:57;1.83;;;1.30;;
11313;SDS011;5712;48.858;9.206;2023-12-28T03:50:23;2.10;;;1.80;;
11313;SDS011;5712;48.858;9.206;2023-12-28T03:52:51;2.20;;;1.33;;
11313;SDS011;5712;48.858;9.206;2023-12-28T03:55:18;2.33;;;1.40;;
11313;SDS011;5712;48.858;9.206;2023-12-28T03:57:44;1.63;;;1.20;;
11313;SDS011;5712;48.858;9.206;2023-12-28T04:00:13;1.77;;;1.27;;
11313;SDS011;5712;48.858;9.206;2023-12-28T04:02:41;1.10;;;0.90;;
11313;SDS011;5712;48.858;9.206;2023-12-28T04:05:08;1.40;;;1.30;;
11313;SDS011;5712;48.858;9.206;2023-12-28T04:07:34;1.87;;;1.40;;
11313;SDS011;5712;48.858;9.206;2023-12-28T04:10:02;2.00;;;1.10;;
11313;SDS011;5712;48.858;9.206;2023-12-28T04:12:30;1.70;;;1.17;;
11313;SDS011;5712;48.858;9.206;2023-12-28T04:14:56;2.90;;;1.50;;
11313;SDS011;5712;48.858;9.206;2023-12-28T04:17:23;2.20;;;1.40;;
11313;SDS011;5712;48.858;9.206;2023-12-28T04:19:49;1.77;;;1.17;;
11313;SDS011;5712;48.858;9.206;2023-12-28T04:22:16;1.30;;;1.20;;
11313;SDS011;5712;48.858;9.206;2023-12-28T04:24:42;1.40;;;1.10;;
11313;SDS011;5712;48.858;9.206;2023-12-28T04:27:10;2.23;;;1.93;;
11313;SDS011;5712;48.858;9.206;2023-12-28T04:29:37;1.63;;;1.00;;
11313;SDS011;5712;48.858;9.206;2023-12-28T04:32:04;1.77;;;1.33;;
11313;SDS011;5712;48.858;9.206;2023-12-28T04:34:30;2.10;;;1.47;;
11313;SDS011;5712;48.858;9.206;2023-12-28T04:36:57;2.00;;;1.30;;
11313;SDS011;5712;48.858;9.206;2023-12-28T04:39:23;1.40;;;1.30;;
11313;SDS011;5712;48.858;9.206;2023-12-28T04:41:50;1.20;;;1.10;;
11313;SDS011;5712;48.858;9.206;2023-12-28T04:44:20;2.07;;;1.53;;
11313;SDS011;5712;48.858;9.206;2023-12-28T04:46:46;1.50;;;1.00;;
11313;SDS011;5712;48.858;9.206;2023-12-28T04:49:13;1.70;;;1.20;;
11313;SDS011;5712;48.858;9.206;2023-12-28T04:51:41;2.10;;;1.33;;
11313;SDS011;5712;48.858;9.206;2023-12-28T04:54:08;1.60;;;1.40;;
11313;SDS011;5712;48.858;9.206;2023-12-28T04:56:35;1.80;;;1.20;;
11313;SDS011;5712;48.858;9.206;2023-12-28T04:59:01;2.73;;;1.50;;
11313;SDS011;5712;48.858;9.206;2023-12-28T05:01:29;2.10;;;1.50;;
11313;SDS011;5712;48.858;9.206;2023-12-28T05:03:57;1.30;;;1.20;;
11313;SDS011;5712;48.858;9.206;2023-12-28T05:06:24;1.20;;;1.10;;
11313;SDS011;5712;48.858;9.206;2023-12-28T05:08:53;1.77;;;1.40;;
11313;SDS011;5712;48.858;9.206;2023-12-28T05:11:20;1.70;;;1.40;;
11313;SDS011;5712;48.858;9.206;2023-12-28T05:13:46;1.30;;;1.20;;
11313;SDS011;5712;48.858;9.206;2023-12-28T05:16:13;1.57;;;1.30;;
11313;SDS011;5712;48.858;9.206;2023-12-28T05:18:41;2.17;;;1.47;;
11313;SDS011;5712;48.858;9.206;2023-12-28T05:21:07;2.23;;;1.07;;
11313;SDS011;5712;48.858;9.206;2023-12-28T05:23:34;1.27;;;1.17;;
11313;SDS011;5712;48.858;9.206;2023-12-28T05:26:00;1.70;;;1.50;;
11313;SDS011;5712;48.858;9.206;2023-12-28T05:28:26;2.40;;;1.27;;
11313;SDS011;5712;48.858;9.206;2023-12-28T05:30:53;1.97;;;1.30;;
11313;SDS011;5712;48.858;9.206;2023-12-28T05:33:19;1.83;;;1.30;;
11313;SDS011;5712;48.858;9.206;2023-12-28T05:35:47;2.00;;;1.40;;
11313;SDS011;5712;48.858;9.206;2023-12-28T05:38:14;1.83;;;1.27;;
11313;SDS011;5712;48.858;9.206;2023-12-28T05:40:40;1.77;;;1.17;;
11313;SDS011;5712;48.858;9.206;2023-12-28T05:43:08;1.47;;;1.20;;
11313;SDS011;5712;48.858;9.206;2023-12-28T05:45:34;1.43;;;1.20;;
11313;SDS011;5712;48.858;9.206;2023-12-28T05:48:01;1.40;;;1.10;;
11313;SDS011;5712;48.858;9.206;2023-12-28T05:50:27;1.27;;;1.10;;
11313;SDS011;5712;48.858;9.206;2023-12-28T05:52:55;2.37;;;1.50;;
11313;SDS011;5712;48.858;9.206;2023-12-28T05:55:21;2.07;;;1.20;;
11313;SDS011;5712;48.858;9.206;2023-12-28T05:57:48;1.50;;;1.30;;
11313;SDS011;5712;48.858;9.206;2023-12-28T06:00:14;1.73;;;1.40;;
11313;SDS011;5712;48.858;9.206;2023-12-28T06:02:41;1.60;;;1.40;;
11313;SDS011;5712;48.858;9.206;2023-12-28T06:05:08;2.43;;;1.20;;
11313;SDS011;5712;48.858;9.206;2023-12-28T06:07:34;1.80;;;1.07;;
11313;SDS011;5712;48.858;9.206;2023-12-28T06:10:02;2.33;;;1.33;;
11313;SDS011;5712;48.858;9.206;2023-12-28T06:12:29;2.27;;;1.30;;
11313;SDS011;5712;48.858;9.206;2023-12-28T06:14:56;2.03;;;1.20;;
11313;SDS011;5712;48.858;9.206;2023-12-28T06:17:22;1.97;;;1.03;;
11313;SDS011;5712;48.858;9.206;2023-12-28T06:19:48;1.80;;;1.50;;
11313;SDS011;5712;48.858;9.206;2023-12-28T06:22:16;1.10;;;0.97;;
11313;SDS011;5712;48.858;9.206;2023-12-28T06:24:42;1.30;;;1.20;;
11313;SDS011;5712;48.858;9.206;2023-12-28T06:27:10;4.40;;;2.13;;
11313;SDS011;5712;48.858;9.206;2023-12-28T06:29:36;2.13;;;1.60;;
11313;SDS011;5712;48.858;9.206;2023-12-28T06:32:03;1.43;;;1.23;;
11313;SDS011;5712;48.858;9.206;2023-12-28T06:34:30;1.80;;;1.30;;
11313;SDS011;5712;48.858;9.206;2023-12-28T06:36:57;1.60;;;1.43;;
11313;SDS011;5712;48.858;9.206;2023-12-28T06:39:23;1.70;;;1.40;;
11313;SDS011;5712;48.858;9.206;2023-12-28T06:41:50;1.57;;;1.47;;
11313;SDS011;5712;48.858;9.206;2023-12-28T06:44:18;3.33;;;1.73;;
11313;SDS011;5712;48.858;9.206;2023-12-28T06:46:44;2.63;;;1.90;;
11313;SDS011;5712;48.858;9.206;2023-12-28T06:49:11;3.13;;;2.30;;
11313;SDS011;5712;48.858;9.206;2023-12-28T06:51:37;2.23;;;1.70;;
11313;SDS011;5712;48.858;9.206;2023-12-28T06:54:04;3.37;;;2.30;;
11313;SDS011;5712;48.858;9.206;2023-12-28T06:56:30;3.27;;;2.20;;
11313;SDS011;5712;48.858;9.206;2023-12-28T06:58:57;2.50;;;1.87;;
11313;SDS011;5712;48.858;9.206;2023-12-28T07:01:24;2.57;;;2.13;;
11313;SDS011;5712;48.858;9.206;2023-12-28T07:03:51;2.20;;;1.93;;
11313;SDS011;5712;48.858;9.206;2023-12-28T07:06:18;3.17;;;1.97;;
11313;SDS011;5712;48.858;9.206;2023-12-28T07:08:44;2.33;;;1.90;;
11313;SDS011;5712;48.858;9.206;2023-12-28T07:11:11;2.80;;;1.90;;
11313;SDS011;5712;48.858;9.206;2023-12-28T07:13:37;2.33;;;1.80;;
11313;SDS011;5712;48.858;9.206;2023-12-28T07:16:04;1.90;;;1.70;;
11313;SDS011;5712;48.858;9.206;2023-12-28T07:18:34;2.47;;;1.80;;
11313;SDS011;5712;48.858;9.206;2023-12-28T07:21:00;1.93;;;1.73;;
11313;SDS011;5712;48.858;9.206;2023-12-28T07:23:26;1.97;;;1.70;;
11313;SDS011;5712;48.858;9.206;2023-12-28T07:25:53;2.20;;;2.00;;
11313;SDS011;5712;48.858;9.206;2023-12-28T07:28:19;4.47;;;2.00;;
11313;SDS011;5712;48.858;9.206;2023-12-28T07:30:46;2.00;;;1.80;;
11313;SDS011;5712;48.858;9.206;2023-12-28T07:33:12;2.33;;;1.80;;
11313;SDS011;5712;48.858;9.206;2023-12-28T07:35:40;2.23;;;1.60;;
11313;SDS011;5712;48.858;9.206;2023-12-28T07:38:07;2.97;;;1.80;;
11313;SDS011;5712;48.858;9.206;2023-12-28T07:40:33;1.80;;;1.47;;
11313;SDS011;5712;48.858;9.206;2023-12-28T07:43:00;1.90;;;1.50;;
11313;SDS011;5712;48.858;9.206;2023-12-28T07:45:27;1.73;;;1.60;;
11313;SDS011;5712;48.858;9.206;2023-12-28T07:47:54;2.60;;;1.67;;
11313;SDS011;5712;48.858;9.206;2023-12-28T07:50:20;2.20;;;1.70;;
11313;SDS011;5712;48.858;9.206;2023-12-28T07:52:48;2.03;;;1.43;;
11313;SDS011;5712;48.858;9.206;2023-12-28T07:55:15;2.00;;;1.40;;
11313;SDS011;5712;48.858;9.206;2023-12-28T07:57:41;1.40;;;1.30;;
11313;SDS011;5712;48.858;9.206;2023-12-28T08:00:08;1.93;;;1.53;;
11313;SDS011;5712;48.858;9.206;2023-12-28T08:02:35;2.03;;;1.50;;
11313;SDS011;5712;48.858;9.206;2023-12-28T08:05:02;1.83;;;1.43;;
11313;SDS011;5712;48.858;9.206;2023-12-28T08:07:29;1.73;;;1.20;;
11313;SDS011;5712;48.858;9.206;2023-12-28T08:09:57;2.10;;;1.70;;
11313;SDS011;5712;48.858;9.206;2023-12-28T08:12:23;2.07;;;1.57;;
11313;SDS011;5712;48.858;9.206;2023-12-28T08:14:52;2.03;;;1.60;;
11313;SDS011;5712;48.858;9.206;2023-12-28T08:17:19;1.80;;;1.40;;
11313;SDS011;5712;48.858;9.206;2023-12-28T08:19:45;2.20;;;1.43;;
11313;SDS011;5712;48.858;9.206;2023-12-28T08:22:11;1.80;;;1.60;;
11313;SDS011;5712;48.858;9.206;2023-12-28T08:24:38;2.23;;;1.63;;
11313;SDS011;5712;48.858;9.206;2023-12-28T08:27:06;1.87;;;1.57;;
11313;SDS011;5712;48.858;9.206;2023-12-28T08:29:32;1.90;;;1.50;;
11313;SDS011;5712;48.858;9.206;2023-12-28T08:31:59;1.83;;;1.57;;
11313;SDS011;5712;48.858;9.206;2023-12-28T08:34:25;2.00;;;1.50;;
11313;SDS011;5712;48.858;9.206;2023-12-28T08:36:53;1.93;;;1.47;;
11313;SDS011;5712;48.858;9.206;2023-12-28T08:39:19;2.70;;;1.53;;
11313;SDS011;5712;48.858;9.206;2023-12-28T08:41:46;2.40;;;1.47;;
11313;SDS011;5712;48.858;9.206;2023-12-28T08:44:13;1.83;;;1.53;;
11313;SDS011;5712;48.858;9.206;2023-12-28T08:46:40;1.57;;;1.30;;
11313;SDS011;5712;48.858;9.206;2023-12-28T08:49:06;2.03;;;1.60;;
11313;SDS011;5712;48.858;9.206;2023-12-28T08:51:33;2.97;;;1.90;;
11313;SDS011;5712;48.858;9.206;2023-12-28T08:53:59;2.53;;;1.90;;
11313;SDS011;5712;48.858;9.206;2023-12-28T08:56:26;3.80;;;1.90;;
11313;SDS011;5712;48.858;9.206;2023-12-28T08:58:52;4.70;;;2.00;;
11313;SDS011;5712;48.858;9.206;2023-12-28T09:01:21;2.90;;;2.10;;
11313;SDS011;5712;48.858;9.206;2023-12-28T09:03:50;2.97;;;1.90;;
11313;SDS011;5712;48.858;9.206;2023-12-28T09:06:18;2.40;;;1.80;;
11313;SDS011;5712;48.858;9.206;2023-12-28T09:08:47;3.10;;;1.83;;
11313;SDS011;5712;48.858;9.206;2023-12-28T09:11:15;2.73;;;2.10;;
11313;SDS011;5712;48.858;9.206;2023-12-28T09:13:42;3.40;;;2.00;;
11313;SDS011;5712;48.858;9.206;2023-12-28T09:16:09;2.40;;;1.83;;
11313;SDS011;5712;48.858;9.206;2023-12-28T09:18:38;2.60;;;1.53;;
11313;SDS011;5712;48.858;9.206;2023-12-28T09:21:05;2.53;;;1.90;;
11313;SDS011;5712;48.858;9.206;2023-12-28T09:23:33;3.53;;;1.90;;
11313;SDS011;5712;48.858;9.206;2023-12-28T09:26:01;4.63;;;2.10;;
11313;SDS011;5712;48.858;9.206;2023-12-28T09:28:28;3.80;;;2.67;;
11313;SDS011;5712;48.858;9.206;2023-12-28T09:30:55;3.63;;;2.57;;
11313;SDS011;5712;48.858;9.206;2023-12-28T09:33:21;4.77;;;2.60;;
11313;SDS011;5712;48.858;9.206;2023-12-28T09:35:49;3.50;;;2.80;;
11313;SDS011;5712;48.858;9.206;2023-12-28T09:38:16;4.53;;;3.40;;
11313;SDS011;5712;48.858;9.206;2023-12-28T09:40:42;4.60;;;2.70;;
11313;SDS011;5712;48.858;9.206;2023-12-28T09:43:12;3.40;;;2.67;;
11313;SDS011;5712;48.858;9.206;2023-12-28T09:45:41;3.07;;;2.50;;
11313;SDS011;5712;48.858;9.206;2023-12-28T09:48:08;3.07;;;2.10;;
11313;SDS011;5712;48.858;9.206;2023-12-28T09:50:35;4.30;;;2.70;;
11313;SDS011;5712;48.858;9.206;2023-12-28T09:53:03;3.23;;;2.37;;
11313;SDS011;5712;48.858;9.206;2023-12-28T09:55:30;3.93;;;2.90;;
11313;SDS011;5712;48.858;9.206;2023-12-28T09:57:56;4.60;;;2.60;;
11313;SDS011;5712;48.858;9.206;2023-12-28T10:00:24;4.47;;;2.60;;
11313;SDS011;5712;48.858;9.206;2023-12-28T10:02:51;4.70;;;2.83;;
11313;SDS011;5712;48.858;9.206;2023-12-28T10:05:18;2.67;;;2.03;;
11313;SDS011;5712;48.858;9.206;2023-12-28T10:07:45;2.93;;;2.10;;
11313;SDS011;5712;48.858;9.206;2023-12-28T10:10:14;2.13;;;1.80;;
11313;SDS011;5712;48.858;9.206;2023-12-28T10:12:41;3.03;;;2.00;;
11313;SDS011;5712;48.858;9.206;2023-12-28T10:15:08;3.20;;;2.23;;
11313;SDS011;5712;48.858;9.206;2023-12-28T10:17:35;3.57;;;2.00;;
11313;SDS011;5712;48.858;9.206;2023-12-28T10:20:01;2.90;;;2.08;;
11313;SDS011;5712;48.858;9.206;2023-12-28T10:22:30;1.90;;;1.70;;
11313;SDS011;5712;48.858;9.206;2023-12-28T10:24:58;3.87;;;1.80;;
11313;SDS011;5712;48.858;9.206;2023-12-28T10:27:26;3.10;;;2.07;;
11313;SDS011;5712;48.858;9.206;2023-12-28T10:29:53;3.20;;;2.00;;
11313;SDS011;5712;48.858;9.206;2023-12-28T10:32:21;4.60;;;2.27;;
11313;SDS011;5712;48.858;9.206;2023-12-28T10:34:49;3.97;;;1.83;;
11313;SDS011;5712;48.858;9.206;2023-12-28T10:37:17;3.80;;;2.50;;
11313;SDS011;5712;48.858;9.206;2023-12-28T10:39:46;3.57;;;2.73;;
11313;SDS011;5712;48.858;9.206;2023-12-28T10:42:14;3.53;;;2.03;;
11313;SDS011;5712;48.858;9.206;2023-12-28T10:44:48;3.83;;;2.50;;
11313;SDS011;5712;48.858;9.206;2023-12-28T10:47:20;3.50;;;2.30;;
11313;SDS011;5712;48.858;9.206;2023-12-28T10:49:51;3.90;;;2.40;;
11313;SDS011;5712;48.858;9.206;2023-12-28T10:52:21;5.23;;;2.27;;
11313;SDS011;5712;48.858;9.206;2023-12-28T10:54:54;4.10;;;1.87;;
11313;SDS011;5712;48.858;9.206;2023-12-28T10:57:29;3.43;;;2.30;;
11313;SDS011;5712;48.858;9.206;2023-12-28T11:00:07;4.87;;;3.30;;
11313;SDS011;5712;48.858;9.206;2023-12-28T11:02:37;5.33;;;3.70;;
11313;SDS011;5712;48.858;9.206;2023-12-28T11:05:06;5.67;;;4.23;;
11313;SDS011;5712;48.858;9.206;2023-12-28T11:07:33;5.70;;;4.23;;
11313;SDS011;5712;48.858;9.206;2023-12-28T11:10:02;4.87;;;3.57;;
11313;SDS011;5712;48.858;9.206;2023-12-28T11:12:31;5.17;;;2.90;;
11313;SDS011;5712;48.858;9.206;2023-12-28T11:14:58;2.93;;;1.57;;
11313;SDS011;5712;48.858;9.206;2023-12-28T11:17:27;2.63;;;1.20;;
11313;SDS011;5712;48.858;9.206;2023-12-28T11:19:56;1.90;;;1.20;;
11313;SDS011;5712;48.858;9.206;2023-12-28T11:22:23;1.00;;;0.90;;
11313;SDS011;5712;48.858;9.206;2023-12-28T11:24:52;2.90;;;1.23;;
11313;SDS011;5712;48.858;9.206;2023-12-28T11:27:19;1.63;;;1.10;;
11313;SDS011;5712;48.858;9.206;2023-12-28T11:29:47;2.03;;;1.23;;
11313;SDS011;5712;48.858;9.206;2023-12-28T11:32:14;2.37;;;1.30;;
11313;SDS011;5712;48.858;9.206;2023-12-28T11:34:42;1.33;;;1.00;;
11313;SDS011;5712;48.858;9.206;2023-12-28T11:37:08;1.50;;;1.20;;
11313;SDS011;5712;48.858;9.206;2023-12-28T11:39:41;1.33;;;1.07;;
11313;SDS011;5712;48.858;9.206;2023-12-28T11:42:09;1.77;;;1.13;;
11313;SDS011;5712;48.858;9.206;2023-12-28T11:44:37;2.17;;;1.30;;
11313;SDS011;5712;48.858;9.206;2023-12-28T11:47:10;1.30;;;1.20;;
11313;SDS011;5712;48.858;9.206;2023-12-28T11:49:37;1.90;;;1.57;;
11313;SDS011;5712;48.858;9.206;2023-12-28T11:52:07;1.20;;;1.10;;
11313;SDS011;5712;48.858;9.206;2023-12-28T11:54:35;1.60;;;1.40;;
11313;SDS011;5712;48.858;9.206;2023-12-28T11:57:02;1.80;;;1.20;;
11313;SDS011;5712;48.858;9.206;2023-12-28T11:59:29;1.10;;;1.00;;
11313;SDS011;5712;48.858;9.206;2023-12-28T12:01:57;1.83;;;1.00;;
11313;SDS011;5712;48.858;9.206;2023-12-28T12:04:24;1.90;;;1.10;;
11313;SDS011;5712;48.858;9.206;2023-12-28T12:06:50;1.30;;;1.20;;
11313;SDS011;5712;48.858;9.206;2023-12-28T12:09:19;2.37;;;1.10;;
11313;SDS011;5712;48.858;9.206;2023-12-28T12:11:47;1.23;;;1.13;;
11313;SDS011;5712;48.858;9.206;2023-12-28T12:14:14;1.60;;;1.10;;
11313;SDS011;5712;48.858;9.206;2023-12-28T12:16:41;1.33;;;1.10;;
11313;SDS011;5712;48.858;9.206;2023-12-28T12:19:07;1.53;;;1.20;;
11313;SDS011;5712;48.858;9.206;2023-12-28T12:21:34;1.20;;;1.10;;
11313;SDS011;5712;48.858;9.206;2023-12-28T12:24:01;1.53;;;1.10;;
11313;SDS011;5712;48.858;9.206;2023-12-28T12:26:29;1.93;;;1.30;;
11313;SDS011;5712;48.858;9.206;2023-12-28T12:28:56;1.70;;;1.23;;
11313;SDS011;5712;48.858;9.206;2023-12-28T12:31:23;1.57;;;1.20;;
11313;SDS011;5712;48.858;9.206;2023-12-28T12:33:51;1.67;;;1.30;;
11313;SDS011;5712;48.858;9.206;2023-12-28T12:36:18;1.77;;;1.50;;
11313;SDS011;5712;48.858;9.206;2023-12-28T12:38:46;6.83;;;1.73;;
11313;SDS011;5712;48.858;9.206;2023-12-28T12:41:13;3.63;;;1.60;;
11313;SDS011;5712;48.858;9.206;2023-12-28T12:43:41;4.53;;;1.67;;
11313;SDS011;5712;48.858;9.206;2023-12-28T12:46:08;3.13;;;1.60;;
11313;SDS011;5712;48.858;9.206;2023-12-28T12:48:34;3.50;;;1.40;;
11313;SDS011;5712;48.858;9.206;2023-12-28T12:51:01;5.47;;;1.87;;
11313;SDS011;5712;48.858;9.206;2023-12-28T12:53:32;2.60;;;1.30;;
11313;SDS011;5712;48.858;9.206;2023-12-28T12:55:59;1.60;;;1.40;;
11313;SDS011;5712;48.858;9.206;2023-12-28T12:58:25;3.47;;;1.70;;
11313;SDS011;5712;48.858;9.206;2023-12-28T13:00:54;1.60;;;1.30;;
11313;SDS011;5712;48.858;9.206;2023-12-28T13:03:19;2.70;;;1.40;;
11313;SDS011;5712;48.858;9.206;2023-12-28T13:05:46;1.57;;;1.27;;
11313;SDS011;5712;48.858;9.206;2023-12-28T13:08:13;1.90;;;1.23;;
11313;SDS011;5712;48.858;9.206;2023-12-28T13:10:40;1.73;;;1.30;;
11313;SDS011;5712;48.858;9.206;2023-12-28T13:13:06;1.73;;;1.40;;
11313;SDS011;5712;48.858;9.206;2023-12-28T13:15:33;1.80;;;1.50;;
11313;SDS011;5712;48.858;9.206;2023-12-28T13:18:01;2.90;;;1.80;;
11313;SDS011;5712;48.858;9.206;2023-12-28T13:20:28;1.77;;;1.53;;
11313;SDS011;5712;48.858;9.206;2023-12-28T13:22:54;2.00;;;1.50;;
11313;SDS011;5712;48.858;9.206;2023-12-28T13:25:22;2.43;;;1.50;;
11313;SDS011;5712;48.858;9.206;2023-12-28T13:27:48;2.80;;;1.87;;
11313;SDS011;5712;48.858;9.206;2023-12-28T13:30:15;3.00;;;1.90;;
11313;SDS011;5712;48.858;9.206;2023-12-28T13:32:41;3.77;;;1.90;;
11313;SDS011;5712;48.858;9.206;2023-12-28T13:35:09;3.80;;;1.63;;
11313;SDS011;5712;48.858;9.206;2023-12-28T13:37:36;2.50;;;1.80;;
11313;SDS011;5712;48.858;9.206;2023-12-28T13:40:03;2.90;;;1.87;;
11313;SDS011;5712;48.858;9.206;2023-12-28T13:42:31;2.40;;;1.77;;
11313;SDS011;5712;48.858;9.206;2023-12-28T13:44:58;1.93;;;1.40;;
11313;SDS011;5712;48.858;9.206;2023-12-28T13:47:25;2.30;;;1.53;;
11313;SDS011;5712;48.858;9.206;2023-12-28T13:49:51;1.73;;;1.60;;
11313;SDS011;5712;48.858;9.206;2023-12-28T13:52:19;1.77;;;1.30;;
11313;SDS011;5712;48.858;9.206;2023-12-28T13:54:45;2.00;;;1.47;;
11313;SDS011;5712;48.858;9.206;2023-12-28T13:57:12;2.30;;;1.37;;
11313;SDS011;5712;48.858;9.206;2023-12-28T13:59:38;1.60;;;1.20;;
11313;SDS011;5712;48.858;9.206;2023-12-28T14:02:05;3.60;;;1.50;;
11313;SDS011;5712;48.858;9.206;2023-12-28T14:04:32;1.50;;;1.40;;
11313;SDS011;5712;48.858;9.206;2023-12-28T14:06:58;1.97;;;1.40;;
11313;SDS011;5712;48.858;9.206;2023-12-28T14:09:26;2.10;;;1.40;;
11313;SDS011;5712;48.858;9.206;2023-12-28T14:11:53;2.67;;;2.30;;
11313;SDS011;5712;48.858;9.206;2023-12-28T14:14:19;3.17;;;2.33;;
11313;SDS011;5712;48.858;9.206;2023-12-28T14:16:46;4.77;;;2.63;;
11313;SDS011;5712;48.858;9.206;2023-12-28T14:19:12;4.53;;;2.50;;
11313;SDS011;5712;48.858;9.206;2023-12-28T14:21:39;4.07;;;2.50;;
11313;SDS011;5712;48.858;9.206;2023-12-28T14:24:06;3.33;;;2.30;;
11313;SDS011;5712;48.858;9.206;2023-12-28T14:26:35;3.50;;;2.70;;
11313;SDS011;5712;48.858;9.206;2023-12-28T14:29:07;3.20;;;2.33;;
11313;SDS011;5712;48.858;9.206;2023-12-28T14:31:34;2.90;;;2.30;;
11313;SDS011;5712;48.858;9.206;2023-12-28T14:34:01;2.90;;;2.37;;
11313;SDS011;5712;48.858;9.206;2023-12-28T14:36:30;3.53;;;2.80;;
11313;SDS011;5712;48.858;9.206;2023-12-28T14:38:57;3.20;;;2.83;;
11313;SDS011;5712;48.858;9.206;2023-12-28T14:41:24;3.17;;;2.80;;
11313;SDS011;5712;48.858;9.206;2023-12-28T14:43:52;5.37;;;2.40;;
11313;SDS011;5712;48.858;9.206;2023-12-28T14:46:19;2.90;;;2.03;;
11313;SDS011;5712;48.858;9.206;2023-12-28T14:48:46;2.90;;;2.03;;
11313;SDS011;5712;48.858;9.206;2023-12-28T14:51:13;2.23;;;2.00;;
11313;SDS011;5712;48.858;9.206;2023-12-28T14:53:39;3.50;;;2.70;;
11313;SDS011;5712;48.858;9.206;2023-12-28T14:56:06;5.00;;;2.93;;
11313;SDS011;5712;48.858;9.206;2023-12-28T14:58:32;4.10;;;3.07;;
11313;SDS011;5712;48.858;9.206;2023-12-28T15:01:00;4.67;;;3.27;;